Latest Weather Observations for Marree Airport

IDS60801

Issued at 9:51 pm CDT Thursday 18 October 2018 (issued every 10 minutes, with the page automatically refreshed every 10 minutes)

About weather observations | Map of weather stations | Latest weather observations for SA | Other Formats
Station Details ID: 017126 Name: MARREE AERO Lat: -29.66 Lon: 138.07 Height: 50.0 m
Data from the previous 72 hours. | See also: Recent months at Marree Airport
Date/Time
CDT
Temp
°C
App
Temp
°C
Dew
Point
°C
Rel
Hum
%
Delta-T
°C
Wind Press
QNH
hPa
Press
MSL
hPa
Rain since
9am
mm
Dir  Spd
km/h
Gust
km/h
Spd
kts
Gust
kts
18/09:30pm 22.4 16.8 -10.7 10 12.1 NW 13 15 7 8 1014.4 1014.2 0.0
18/09:00pm 23.4 17.4 -11.2 9 12.7 NW 15 15 8 8 1014.2 1014.0 0.0
18/08:30pm 24.8 18.8 -11.7 8 13.5 NW 15 17 8 9 1013.9 1013.7 0.0
18/08:00pm 26.4 20.8 -10.5 8 14.2 NW 13 17 7 9 1013.6 1013.4 0.0
18/07:30pm 28.8 22.5 -10.4 7 15.5 NNW 17 20 9 11 1013.1 1012.9 0.0
18/07:00pm 30.6 25.9 -9.1 7 16.3 NW 9 13 5 7 1012.6 1012.4 0.0
18/06:30pm 31.3 26.0 -6.8 8 16.4 NNW 13 20 7 11 1012.7 1012.5 0.0
18/06:00pm 31.6 25.6 -6.6 8 16.5 WNW 17 26 9 14 1012.8 1012.6 0.0
18/05:30pm 32.2 27.2 -4.6 9 16.5 NW 13 22 7 12 1012.7 1012.5 0.0
18/05:00pm 31.7 25.3 -6.6 8 16.6 NW 19 28 10 15 1012.8 1012.6 0.0
18/04:30pm 32.1 26.5 -3.3 10 16.3 WNW 17 32 9 17 1012.9 1012.7 0.0
18/04:00pm 31.0 25.6 -4.1 10 15.8 NW 15 30 8 16 1013.2 1013.0 0.0
18/03:30pm 31.0 24.8 -2.9 11 15.5 NNW 20 35 11 19 1013.5 1013.3 0.0
18/03:00pm 31.0 24.7 -4.1 10 15.8 NNW 20 30 11 16 1014.0 1013.8 0.0
18/02:30pm 30.1 25.4 0.6 15 14.3 N 15 28 8 15 1014.6 1014.4 0.0
18/02:00pm 30.1 24.7 1.5 16 14.0 NNW 19 28 10 15 1015.0 1014.8 0.0
18/01:30pm 30.3 25.6 3.4 18 13.7 NNW 17 26 9 14 1015.4 1015.2 0.0
18/01:00pm 28.7 24.1 3.5 20 12.7 NNW 17 24 9 13 1015.7 1015.5 0.0
18/12:30pm 29.1 25.9 5.2 22 12.4 NNE 11 19 6 10 1016.2 1016.0 0.0
18/12:00pm 26.8 22.4 4.6 24 11.3 NNE 17 24 9 13 1016.6 1016.4 0.0
18/11:30am 26.9 23.0 5.2 25 11.1 N 15 26 8 14 1017.3 1017.1 0.0
18/11:00am 26.3 22.9 4.1 24 11.1 NNE 11 19 6 10 1017.7 1017.5 0.0
18/10:30am 25.2 21.4 3.8 25 10.6 E 13 22 7 12 1017.9 1017.7 0.0
18/10:00am 22.8 19.4 1.8 25 9.8 SE 9 15 5 8 1018.2 1018.0 0.0
18/09:30am 21.7 17.9 1.9 27 9.2 SE 11 15 6 8 1018.3 1018.1 0.0
18/09:00am 19.6 15.4 1.6 30 8.2 SE 13 17 7 9 1018.1 1017.9 0.0
18/08:30am 18.4 14.2 1.9 33 7.5 SE 13 15 7 8 1018.0 1017.8 0.0
18/08:00am 16.5 12.3 1.4 36 6.7 SE 13 15 7 8 1017.8 1017.6 0.0
18/07:30am 14.0 9.6 0.6 40 5.7 SSE 13 15 7 8 1017.6 1017.4 0.0
18/07:00am 12.5 8.1 0.3 43 5.1 SSE 13 15 7 8 1017.3 1017.1 0.0
18/06:30am 12.8 7.7 0.9 44 5.0 SSE 17 19 9 10 1016.8 1016.6 0.0
18/06:00am 13.2 8.5 0.6 42 5.3 SE 15 17 8 9 1016.5 1016.3 0.0
18/05:30am 13.6 8.5 0.9 42 5.4 SSE 17 19 9 10 1016.0 1015.8 0.0
18/05:00am 13.0 8.2 0.4 42 5.3 SSE 15 17 8 9 1015.7 1015.5 0.0
18/04:30am 12.1 7.7 -2.1 37 5.6 SSE 11 13 6 7 1015.7 1015.5 0.0
18/04:00am 13.3 9.6 -0.3 39 5.6 S 9 13 5 7 1015.6 1015.4 0.0
18/03:30am 12.6 9.0 -2.1 36 5.8 S 7 9 4 5 1015.6 1015.4 0.0
18/03:00am 12.8 8.4 -2.3 35 5.9 SE 11 11 6 6 1015.7 1015.5 0.0
18/02:30am 14.5 9.9 -0.8 35 6.3 SSE 13 13 7 7 1015.7 1015.5 0.0
18/02:00am 15.7 11.7 0.3 35 6.6 S 11 13 6 7 1016.0 1015.8 0.0
18/01:30am 15.3 10.5 -0.1 35 6.5 SSW 15 17 8 9 1016.2 1016.0 0.0
18/01:00am 15.0 10.3 -1.5 32 6.8 S 13 15 7 8 1016.2 1016.0 0.0
18/12:30am 15.8 11.9 -1.3 31 7.1 S 9 11 5 6 1016.2 1016.0 0.0
18/12:00am 16.6 12.3 -1.5 29 7.5 SSE 11 13 6 7 1016.5 1016.3 0.0
 
Date/Time
CDT
Temp
°C
App
Temp
°C
Dew
Point
°C
Rel
Hum
%
Delta-T
°C
Wind Press
QNH
hPa
Press
MSL
hPa
Rain since
9am
mm
Dir  Spd
km/h
Gust
km/h
Spd
kts
Gust
kts
17/11:30pm 16.7 12.4 -1.9 28 7.7 SSE 11 13 6 7 1016.6 1016.4 0.0
17/11:00pm 18.3 13.6 -1.5 26 8.4 SSE 13 17 7 9 1016.5 1016.3 0.0
17/10:30pm 18.9 13.5 -1.5 25 8.7 SSW 17 19 9 10 1016.4 1016.2 0.0
17/10:00pm 19.7 13.8 -2.0 23 9.2 SSW 19 20 10 11 1016.5 1016.3 0.0
17/09:30pm 20.7 16.0 -1.8 22 9.7 SSW 13 13 7 7 1016.5 1016.3 0.0
17/09:00pm 21.6 16.5 -1.6 21 10.1 S 15 17 8 9 1016.4 1016.2 0.0
17/08:30pm 22.6 17.2 -1.5 20 10.6 S 17 19 9 10 1016.3 1016.1 0.0
17/08:00pm 24.0 17.6 -1.8 18 11.4 SSW 22 26 12 14 1016.1 1015.9 0.0
17/07:30pm 24.9 18.1 -1.8 17 11.9 SSW 24 30 13 16 1015.8 1015.6 0.0
17/07:00pm 25.8 19.0 -1.9 16 12.4 SSW 24 32 13 17 1015.7 1015.5 0.0
17/06:30pm 26.5 19.5 -3.1 14 13.0 SSW 24 32 13 17 1015.6 1015.4 0.0
17/06:00pm 26.9 20.2 -1.0 16 12.8 SSW 24 33 13 18 1015.5 1015.3 0.0
17/05:30pm 27.2 21.4 0.1 17 12.7 SSW 20 32 11 17 1015.5 1015.3 0.0
17/05:00pm 26.4 20.5 1.7 20 11.9 SSW 22 32 12 17 1015.6 1015.4 0.0
17/04:30pm 26.6 21.2 2.5 21 11.8 SW 20 32 11 17 1015.8 1015.6 0.0
17/04:00pm 26.5 21.4 4.3 24 11.2 SSW 20 35 11 19 1016.0 1015.8 0.0
17/03:30pm 26.1 21.1 4.6 25 10.9 WSW 20 35 11 19 1016.4 1016.2 0.0
17/03:00pm 25.8 21.9 5.4 27 10.4 SSW 15 30 8 16 1016.9 1016.7 0.0
17/02:30pm 25.7 21.4 5.3 27 10.4 S 17 28 9 15 1017.4 1017.2 0.0
17/02:00pm 24.6 21.2 5.9 30 9.6 S 13 24 7 13 1018.0 1017.8 0.0
17/01:30pm 24.1 20.1 6.8 33 9.0 S 17 24 9 13 1018.4 1018.2 0.0
17/01:00pm 23.9 19.5 6.7 33 8.9 SSW 19 32 10 17 1018.8 1018.6 0.0
17/12:30pm 22.3 17.8 6.1 35 8.2 S 19 30 10 16 1019.2 1019.0 0.0
17/12:00pm 21.7 16.7 6.4 37 7.7 S 22 33 12 18 1019.7 1019.5 0.0
17/11:30am 21.5 16.7 7.3 40 7.3 S 22 30 12 16 1020.2 1020.0 0.0
17/11:00am 20.4 16.1 7.1 42 6.8 S 19 28 10 15 1020.5 1020.3 0.0
17/10:30am 18.4 13.6 7.2 48 5.6 SSW 22 32 12 17 1020.8 1020.6 0.0
17/10:00am 18.0 12.8 7.1 49 5.5 S 24 37 13 20 1021.0 1020.8 0.0
17/09:30am 17.0 11.4 7.1 52 4.9 S 26 32 14 17 1021.0 1020.8 0.0
17/09:00am 16.2 9.9 7.2 55 4.5 S 30 35 16 19 1020.8 1020.6 -
17/08:30am 15.5 9.9 7.0 57 4.2 S 26 35 14 19 1020.6 1020.4 -
17/08:00am 14.9 8.0 7.2 60 3.8 SSW 33 39 18 21 1020.1 1019.9 -
17/07:30am 14.2 8.3 7.3 63 3.4 S 28 39 15 21 1019.8 1019.6 -
17/07:00am 13.7 8.1 7.2 65 3.2 SSW 26 32 14 17 1019.4 1019.2 -
17/06:30am 13.6 9.2 7.4 66 3.0 S 20 26 11 14 1019.3 1019.1 -
17/06:00am 13.7 9.3 7.2 65 3.2 S 20 26 11 14 1018.9 1018.7 -
17/05:30am 14.3 9.2 7.6 64 3.3 S 24 30 13 16 1018.6 1018.4 -
17/05:00am 14.6 9.4 7.4 62 3.6 S 24 30 13 16 1018.5 1018.3 -
17/04:30am 14.9 10.1 7.5 61 3.7 S 22 28 12 15 1018.4 1018.2 -
17/04:00am 15.1 11.3 7.6 61 3.7 S 17 20 9 11 1018.4 1018.2 -
17/03:30am 15.9 11.0 7.1 56 4.3 S 22 28 12 15 1018.2 1018.0 -
17/03:00am 16.9 10.9 7.0 52 4.9 S 28 39 15 21 1018.0 1017.8 -
17/02:30am 17.1 12.1 6.3 49 5.3 SSW 22 32 12 17 1018.1 1017.9 -
17/02:00am 17.7 - 6.3 47 5.6 - - - - - 1018.2 1018.0 -
17/01:30am 18.2 13.5 6.1 45 6.0 SSW 20 30 11 16 1018.2 1018.0 -
17/01:00am 18.6 14.4 5.8 43 6.3 SSW 17 22 9 12 1018.5 1018.3 -
17/12:30am 19.2 14.4 5.6 41 6.7 SSW 20 26 11 14 1018.3 1018.1 -
 
Date/Time
CDT
Temp
°C
App
Temp
°C
Dew
Point
°C
Rel
Hum
%
Delta-T
°C
Wind Press
QNH
hPa
Press
MSL
hPa
Rain since
9am
mm
Dir  Spd
km/h
Gust
km/h
Spd
kts
Gust
kts
16/11:30pm 20.1 14.5 5.4 38 7.2 SSW 24 28 13 15 1018.3 1018.1 -
16/11:00pm 20.4 14.8 5.2 37 7.5 SSW 24 30 13 16 1018.3 1018.1 -
16/10:30pm 20.4 15.6 4.4 35 7.7 SSW 19 22 10 12 1018.2 1018.0 -
16/10:00pm 21.1 15.7 4.6 34 8.1 SSW 22 28 12 15 1018.0 1017.8 -
16/09:30pm 21.3 15.9 4.4 33 8.2 SSW 22 30 12 16 1017.7 1017.5 -
16/09:00pm 21.8 16.0 4.4 32 8.5 SSW 24 32 13 17 1017.5 1017.3 -
16/08:30pm 22.6 16.2 5.1 32 8.7 SSW 28 33 15 18 1017.1 1016.9 -
16/08:00pm 23.0 16.4 4.0 29 9.3 SSW 28 35 15 19 1016.7 1016.5 -
16/07:00pm 24.5 17.1 3.8 26 10.2 SSW 32 41 17 22 1016.1 1015.9 0.0
16/06:30pm 25.2 17.7 4.3 26 10.4 SW 33 43 18 23 1015.8 1015.6 0.0
16/06:00pm 25.5 18.1 4.0 25 10.7 SSW 32 41 17 22 1015.7 1015.5 0.0
16/05:30pm 26.5 20.3 4.3 24 11.2 SSW 26 35 14 19 1015.7 1015.5 0.0
16/05:00pm 25.9 19.8 4.9 26 10.7 SW 26 43 14 23 1015.6 1015.4 0.0
16/04:30pm 26.2 19.0 5.2 26 10.7 SW 32 46 17 25 1015.6 1015.4 0.0
16/04:00pm 26.7 20.4 5.6 26 10.9 SW 28 43 15 23 1015.5 1015.3 0.0
16/03:30pm 26.0 20.1 5.6 27 10.5 SW 26 43 14 23 1015.8 1015.6 0.0
16/03:00pm 26.0 20.4 5.6 27 10.5 SW 24 37 13 20 1015.9 1015.7 0.0
16/02:30pm 25.8 20.2 5.4 27 10.4 WSW 24 35 13 19 1016.2 1016.0 0.0
16/02:00pm 24.7 18.7 5.5 29 9.8 WSW 26 35 14 19 1016.5 1016.3 0.0
16/01:30pm 24.9 18.6 5.7 29 9.8 SW 28 41 15 22 1016.9 1016.7 0.0
16/01:20pm 24.0 17.6 5.4 30 9.4 SW 28 46 15 25 1017.0 1016.8 0.0
16/01:00pm 24.1 17.2 6.4 32 9.1 SW 32 43 17 23 1017.0 1016.8 0.0
16/12:30pm 23.1 16.5 6.0 33 8.7 SW 30 37 16 20 1017.5 1017.3 0.0
16/12:00pm 23.2 17.1 6.5 34 8.6 SW 28 43 15 23 1017.8 1017.6 0.0
16/11:30am 22.8 16.0 7.0 36 8.2 SW 32 44 17 24 1018.1 1017.9 0.0
16/11:19am 22.2 15.9 7.6 39 7.6 SW 30 48 16 26 1018.1 1017.9 0.0
16/11:00am 21.7 15.9 7.9 41 7.2 SW 28 39 15 21 1018.1 1017.9 0.0
16/10:30am 21.0 15.2 8.0 43 6.8 SW 28 39 15 21 1018.4 1018.2 0.0
16/10:00am 19.7 13.2 8.1 47 6.0 SW 32 41 17 22 1018.3 1018.1 0.0
16/09:30am 19.4 12.8 7.8 47 5.9 SW 32 43 17 23 1018.4 1018.2 0.0
16/09:00am 18.5 12.9 8.7 53 5.1 SSW 28 37 15 20 1018.2 1018.0 0.0
16/08:30am 17.7 13.0 9.1 57 4.5 SSW 24 32 13 17 1018.3 1018.1 0.0
16/08:00am 17.2 12.1 9.1 59 4.2 S 26 33 14 18 1018.3 1018.1 0.0
16/07:30am 16.6 11.1 9.1 61 3.9 S 28 35 15 19 1018.2 1018.0 0.0
16/07:00am 16.4 11.6 8.9 61 3.9 S 24 35 13 19 1017.9 1017.7 0.0
16/06:30am 15.7 12.9 8.7 63 3.6 SW 13 15 7 8 1017.5 1017.3 0.0
16/06:00am 15.0 12.2 8.5 65 3.3 SW 13 13 7 7 1017.0 1016.8 0.0
16/05:30am 15.1 12.3 8.6 65 3.3 S 13 15 7 8 1016.6 1016.4 0.0
16/05:00am 15.4 12.6 8.6 64 3.5 S 13 19 7 10 1016.3 1016.1 0.0
16/04:30am 16.0 12.1 8.7 62 3.7 SSW 19 24 10 13 1016.2 1016.0 0.0
16/04:00am 16.5 12.4 8.7 60 4.0 SSW 20 24 11 13 1015.9 1015.7 0.0
16/03:30am 16.9 12.6 9.3 61 4.0 SSW 22 35 12 19 1015.6 1015.4 0.0
16/03:00am 17.3 13.0 9.5 60 4.1 SSW 22 28 12 15 1015.6 1015.4 0.0
16/02:30am 17.9 11.7 9.5 58 4.4 SW 32 35 17 19 1015.2 1015.0 0.0
16/02:00am 18.6 13.9 9.4 55 4.9 SW 24 30 13 16 1015.1 1014.9 0.0
16/01:30am 19.3 12.9 9.2 52 5.3 SSW 33 41 18 22 1014.9 1014.7 0.0
16/01:00am 19.9 13.7 9.2 50 5.7 SW 32 43 17 23 1014.8 1014.6 0.0
16/12:30am 20.6 14.3 8.9 47 6.2 SSW 32 44 17 24 1014.6 1014.4 0.0
16/12:00am 21.3 13.5 8.2 43 6.9 SW 39 48 21 26 1014.3 1014.1 0.0
 
Date/Time
CDT
Temp
°C
App
Temp
°C
Dew
Point
°C
Rel
Hum
%
Delta-T
°C
Wind Press
QNH
hPa
Press
MSL
hPa
Rain since
9am
mm
Dir  Spd
km/h
Gust
km/h
Spd
kts
Gust
kts
15/11:30pm 22.0 14.7 7.0 38 7.7 SW 35 43 19 23 1014.0 1013.8 0.0
15/11:00pm 22.8 15.7 6.6 35 8.3 SW 33 41 18 22 1013.6 1013.4 0.0
15/10:30pm 23.4 15.5 6.2 33 8.8 SW 37 46 20 25 1013.3 1013.1 0.0
15/10:22pm 23.7 17.2 6.5 33 8.9 SW 30 46 16 25 1013.2 1013.0 0.0
15/10:00pm 23.5 18.9 6.3 33 8.8 SW 20 24 11 13 1012.9 1012.7 0.0

Other Formats:

Comma delimited format used in spreadsheet applications
http://www.bom.gov.au/fwo/IDS60801/IDS60801.95480.axf

JavaScript Object Notation format (JSON) in row-major order
http://www.bom.gov.au/fwo/IDS60801/IDS60801.95480.json